sensor_id;sensor_type;location;lat;lon;timestamp;P1;durP1;ratioP1;P2;durP2;ratioP2
4311;SDS011;2169;49.086;9.284;2022-10-23T00:01:24;6.67;;;1.57;;
4311;SDS011;2169;49.086;9.284;2022-10-23T00:03:54;0.90;;;0.90;;
4311;SDS011;2169;49.086;9.284;2022-10-23T00:06:22;32.93;;;1.63;;
4311;SDS011;2169;49.086;9.284;2022-10-23T00:08:49;2.63;;;1.57;;
4311;SDS011;2169;49.086;9.284;2022-10-23T00:11:17;8.57;;;2.53;;
4311;SDS011;2169;49.086;9.284;2022-10-23T00:13:46;2.27;;;1.40;;
4311;SDS011;2169;49.086;9.284;2022-10-23T00:16:14;10.13;;;1.90;;
4311;SDS011;2169;49.086;9.284;2022-10-23T00:18:41;1.60;;;1.50;;
4311;SDS011;2169;49.086;9.284;2022-10-23T00:21:09;1.67;;;1.43;;
4311;SDS011;2169;49.086;9.284;2022-10-23T00:23:38;1.70;;;1.60;;
4311;SDS011;2169;49.086;9.284;2022-10-23T00:26:05;3.83;;;1.93;;
4311;SDS011;2169;49.086;9.284;2022-10-23T00:28:35;2.60;;;1.63;;
4311;SDS011;2169;49.086;9.284;2022-10-23T00:31:02;1.27;;;1.17;;
4311;SDS011;2169;49.086;9.284;2022-10-23T00:33:30;2.87;;;1.20;;
4311;SDS011;2169;49.086;9.284;2022-10-23T00:35:58;11.73;;;1.97;;
4311;SDS011;2169;49.086;9.284;2022-10-23T00:38:26;3.63;;;1.10;;
4311;SDS011;2169;49.086;9.284;2022-10-23T00:40:52;8.53;;;1.53;;
4311;SDS011;2169;49.086;9.284;2022-10-23T00:43:24;7.23;;;1.53;;
4311;SDS011;2169;49.086;9.284;2022-10-23T00:45:52;1.30;;;1.20;;
4311;SDS011;2169;49.086;9.284;2022-10-23T00:48:19;2.60;;;1.60;;
4311;SDS011;2169;49.086;9.284;2022-10-23T00:50:47;4.53;;;2.10;;
4311;SDS011;2169;49.086;9.284;2022-10-23T00:53:14;1.23;;;1.23;;
4311;SDS011;2169;49.086;9.284;2022-10-23T00:55:45;4.50;;;1.47;;
4311;SDS011;2169;49.086;9.284;2022-10-23T00:58:14;7.93;;;1.10;;
4311;SDS011;2169;49.086;9.284;2022-10-23T01:00:43;1.83;;;1.43;;
4311;SDS011;2169;49.086;9.284;2022-10-23T01:03:12;5.23;;;1.47;;
4311;SDS011;2169;49.086;9.284;2022-10-23T01:05:43;0.73;;;0.73;;
4311;SDS011;2169;49.086;9.284;2022-10-23T01:08:15;8.13;;;0.90;;
4311;SDS011;2169;49.086;9.284;2022-10-23T01:10:49;2.50;;;1.27;;
4311;SDS011;2169;49.086;9.284;2022-10-23T01:13:22;10.47;;;0.90;;
4311;SDS011;2169;49.086;9.284;2022-10-23T01:15:56;5.33;;;1.73;;
4311;SDS011;2169;49.086;9.284;2022-10-23T01:18:29;1.60;;;1.13;;
4311;SDS011;2169;49.086;9.284;2022-10-23T01:21:03;5.60;;;1.33;;
4311;SDS011;2169;49.086;9.284;2022-10-23T01:23:47;2.30;;;1.30;;
4311;SDS011;2169;49.086;9.284;2022-10-23T01:26:32;2.13;;;1.03;;
4311;SDS011;2169;49.086;9.284;2022-10-23T01:29:09;1.00;;;0.80;;
4311;SDS011;2169;49.086;9.284;2022-10-23T01:31:50;2.10;;;1.07;;
4311;SDS011;2169;49.086;9.284;2022-10-23T01:34:21;2.40;;;1.13;;
4311;SDS011;2169;49.086;9.284;2022-10-23T01:36:52;6.67;;;1.00;;
4311;SDS011;2169;49.086;9.284;2022-10-23T01:39:23;4.00;;;1.00;;
4311;SDS011;2169;49.086;9.284;2022-10-23T01:41:53;3.53;;;1.03;;
4311;SDS011;2169;49.086;9.284;2022-10-23T01:44:25;1.70;;;0.90;;
4311;SDS011;2169;49.086;9.284;2022-10-23T01:46:56;2.10;;;2.00;;
4311;SDS011;2169;49.086;9.284;2022-10-23T01:49:23;0.97;;;0.87;;
4311;SDS011;2169;49.086;9.284;2022-10-23T01:51:51;1.53;;;1.43;;
4311;SDS011;2169;49.086;9.284;2022-10-23T01:54:21;1.90;;;1.80;;
4311;SDS011;2169;49.086;9.284;2022-10-23T01:56:51;1.17;;;1.13;;
4311;SDS011;2169;49.086;9.284;2022-10-23T01:59:20;13.07;;;1.40;;
4311;SDS011;2169;49.086;9.284;2022-10-23T02:01:51;5.07;;;1.07;;
4311;SDS011;2169;49.086;9.284;2022-10-23T02:04:22;0.73;;;0.73;;
4311;SDS011;2169;49.086;9.284;2022-10-23T02:07:00;0.90;;;0.90;;
4311;SDS011;2169;49.086;9.284;2022-10-23T02:09:26;6.03;;;1.40;;
4311;SDS011;2169;49.086;9.284;2022-10-23T02:11:54;4.50;;;0.97;;
4311;SDS011;2169;49.086;9.284;2022-10-23T02:14:33;1.17;;;1.17;;
4311;SDS011;2169;49.086;9.284;2022-10-23T02:17:11;1.00;;;1.00;;
4311;SDS011;2169;49.086;9.284;2022-10-23T02:19:42;4.30;;;1.87;;
4311;SDS011;2169;49.086;9.284;2022-10-23T02:22:13;11.03;;;2.27;;
4311;SDS011;2169;49.086;9.284;2022-10-23T02:24:46;2.57;;;0.97;;
4311;SDS011;2169;49.086;9.284;2022-10-23T02:27:18;1.33;;;1.33;;
4311;SDS011;2169;49.086;9.284;2022-10-23T02:29:49;1.67;;;1.57;;
4311;SDS011;2169;49.086;9.284;2022-10-23T02:32:22;8.03;;;1.87;;
4311;SDS011;2169;49.086;9.284;2022-10-23T02:34:51;2.23;;;0.90;;
4311;SDS011;2169;49.086;9.284;2022-10-23T02:37:18;11.27;;;1.10;;
4311;SDS011;2169;49.086;9.284;2022-10-23T02:39:45;1.77;;;1.67;;
4311;SDS011;2169;49.086;9.284;2022-10-23T02:42:13;7.57;;;1.50;;
4311;SDS011;2169;49.086;9.284;2022-10-23T02:44:49;2.77;;;1.60;;
4311;SDS011;2169;49.086;9.284;2022-10-23T02:47:27;5.70;;;2.40;;
4311;SDS011;2169;49.086;9.284;2022-10-23T02:50:02;3.77;;;2.30;;
4311;SDS011;2169;49.086;9.284;2022-10-23T02:52:35;5.70;;;1.57;;
4311;SDS011;2169;49.086;9.284;2022-10-23T02:55:10;1.63;;;1.10;;
4311;SDS011;2169;49.086;9.284;2022-10-23T02:57:43;18.53;;;2.33;;
4311;SDS011;2169;49.086;9.284;2022-10-23T03:00:14;2.63;;;1.10;;
4311;SDS011;2169;49.086;9.284;2022-10-23T03:02:45;1.10;;;1.10;;
4311;SDS011;2169;49.086;9.284;2022-10-23T03:05:19;7.90;;;1.20;;
4311;SDS011;2169;49.086;9.284;2022-10-23T03:07:49;3.03;;;1.77;;
4311;SDS011;2169;49.086;9.284;2022-10-23T03:10:17;6.30;;;1.27;;
4311;SDS011;2169;49.086;9.284;2022-10-23T03:12:44;5.60;;;1.83;;
4311;SDS011;2169;49.086;9.284;2022-10-23T03:15:11;4.10;;;1.40;;
4311;SDS011;2169;49.086;9.284;2022-10-23T03:17:38;5.10;;;1.90;;
4311;SDS011;2169;49.086;9.284;2022-10-23T03:20:07;9.10;;;1.03;;
4311;SDS011;2169;49.086;9.284;2022-10-23T03:22:35;4.73;;;1.53;;
4311;SDS011;2169;49.086;9.284;2022-10-23T03:25:02;6.33;;;1.00;;
4311;SDS011;2169;49.086;9.284;2022-10-23T03:27:29;0.87;;;0.87;;
4311;SDS011;2169;49.086;9.284;2022-10-23T03:29:56;0.90;;;0.90;;
4311;SDS011;2169;49.086;9.284;2022-10-23T03:32:23;1.17;;;1.17;;
4311;SDS011;2169;49.086;9.284;2022-10-23T03:34:50;6.10;;;1.10;;
4311;SDS011;2169;49.086;9.284;2022-10-23T03:37:18;6.20;;;1.17;;
4311;SDS011;2169;49.086;9.284;2022-10-23T03:39:45;1.27;;;1.10;;
4311;SDS011;2169;49.086;9.284;2022-10-23T03:42:11;1.33;;;1.33;;
4311;SDS011;2169;49.086;9.284;2022-10-23T03:44:38;4.13;;;0.90;;
4311;SDS011;2169;49.086;9.284;2022-10-23T03:47:05;5.30;;;1.10;;
4311;SDS011;2169;49.086;9.284;2022-10-23T03:49:33;16.57;;;1.57;;
4311;SDS011;2169;49.086;9.284;2022-10-23T03:52:00;1.60;;;1.50;;
4311;SDS011;2169;49.086;9.284;2022-10-23T03:54:29;2.40;;;1.77;;
4311;SDS011;2169;49.086;9.284;2022-10-23T03:56:56;5.03;;;1.10;;
4311;SDS011;2169;49.086;9.284;2022-10-23T03:59:23;1.37;;;1.07;;
4311;SDS011;2169;49.086;9.284;2022-10-23T04:01:49;7.20;;;2.60;;
4311;SDS011;2169;49.086;9.284;2022-10-23T04:04:16;22.70;;;1.17;;
4311;SDS011;2169;49.086;9.284;2022-10-23T04:06:43;1.00;;;1.00;;
4311;SDS011;2169;49.086;9.284;2022-10-23T04:09:10;1.57;;;1.30;;
4311;SDS011;2169;49.086;9.284;2022-10-23T04:11:38;3.57;;;1.40;;
4311;SDS011;2169;49.086;9.284;2022-10-23T04:14:04;4.33;;;0.80;;
4311;SDS011;2169;49.086;9.284;2022-10-23T04:16:31;1.00;;;0.90;;
4311;SDS011;2169;49.086;9.284;2022-10-23T04:18:58;1.00;;;1.00;;
4311;SDS011;2169;49.086;9.284;2022-10-23T04:21:25;1.20;;;1.13;;
4311;SDS011;2169;49.086;9.284;2022-10-23T04:23:51;1.77;;;1.17;;
4311;SDS011;2169;49.086;9.284;2022-10-23T04:26:18;6.13;;;0.90;;
4311;SDS011;2169;49.086;9.284;2022-10-23T04:28:46;4.30;;;1.53;;
4311;SDS011;2169;49.086;9.284;2022-10-23T04:31:13;2.83;;;1.00;;
4311;SDS011;2169;49.086;9.284;2022-10-23T04:33:40;1.07;;;1.07;;
4311;SDS011;2169;49.086;9.284;2022-10-23T04:36:07;1.13;;;1.03;;
4311;SDS011;2169;49.086;9.284;2022-10-23T04:38:34;1.90;;;0.80;;
4311;SDS011;2169;49.086;9.284;2022-10-23T04:41:01;2.40;;;1.20;;
4311;SDS011;2169;49.086;9.284;2022-10-23T04:43:28;3.10;;;1.33;;
4311;SDS011;2169;49.086;9.284;2022-10-23T04:45:56;0.80;;;0.80;;
4311;SDS011;2169;49.086;9.284;2022-10-23T04:48:22;0.80;;;0.80;;
4311;SDS011;2169;49.086;9.284;2022-10-23T04:50:56;6.43;;;0.87;;
4311;SDS011;2169;49.086;9.284;2022-10-23T04:53:23;7.93;;;1.00;;
4311;SDS011;2169;49.086;9.284;2022-10-23T04:55:51;4.20;;;1.13;;
4311;SDS011;2169;49.086;9.284;2022-10-23T04:58:18;5.23;;;1.30;;
4311;SDS011;2169;49.086;9.284;2022-10-23T05:00:46;0.70;;;0.70;;
4311;SDS011;2169;49.086;9.284;2022-10-23T05:03:14;0.77;;;0.77;;
4311;SDS011;2169;49.086;9.284;2022-10-23T05:05:42;2.20;;;0.93;;
4311;SDS011;2169;49.086;9.284;2022-10-23T05:08:09;1.10;;;1.10;;
4311;SDS011;2169;49.086;9.284;2022-10-23T05:10:37;1.47;;;1.27;;
4311;SDS011;2169;49.086;9.284;2022-10-23T05:13:03;9.63;;;1.73;;
4311;SDS011;2169;49.086;9.284;2022-10-23T05:15:30;1.00;;;1.00;;
4311;SDS011;2169;49.086;9.284;2022-10-23T05:17:58;3.03;;;1.07;;
4311;SDS011;2169;49.086;9.284;2022-10-23T05:20:30;1.27;;;1.27;;
4311;SDS011;2169;49.086;9.284;2022-10-23T05:23:00;1.00;;;1.00;;
4311;SDS011;2169;49.086;9.284;2022-10-23T05:25:28;1.37;;;1.27;;
4311;SDS011;2169;49.086;9.284;2022-10-23T05:27:55;3.70;;;1.03;;
4311;SDS011;2169;49.086;9.284;2022-10-23T05:30:22;1.33;;;1.00;;
4311;SDS011;2169;49.086;9.284;2022-10-23T05:32:49;1.27;;;0.80;;
4311;SDS011;2169;49.086;9.284;2022-10-23T05:35:16;16.43;;;1.30;;
4311;SDS011;2169;49.086;9.284;2022-10-23T05:37:48;7.60;;;1.00;;
4311;SDS011;2169;49.086;9.284;2022-10-23T05:40:18;1.13;;;1.13;;
4311;SDS011;2169;49.086;9.284;2022-10-23T05:42:45;1.53;;;1.10;;
4311;SDS011;2169;49.086;9.284;2022-10-23T05:45:11;5.13;;;3.13;;
4311;SDS011;2169;49.086;9.284;2022-10-23T05:47:38;6.63;;;3.60;;
4311;SDS011;2169;49.086;9.284;2022-10-23T05:50:05;2.70;;;2.50;;
4311;SDS011;2169;49.086;9.284;2022-10-23T05:52:32;5.00;;;2.20;;
4311;SDS011;2169;49.086;9.284;2022-10-23T05:55:00;2.30;;;2.10;;
4311;SDS011;2169;49.086;9.284;2022-10-23T05:57:30;3.50;;;2.17;;
4311;SDS011;2169;49.086;9.284;2022-10-23T05:59:57;3.93;;;1.70;;
4311;SDS011;2169;49.086;9.284;2022-10-23T06:02:24;1.70;;;1.60;;
4311;SDS011;2169;49.086;9.284;2022-10-23T06:04:51;5.47;;;2.20;;
4311;SDS011;2169;49.086;9.284;2022-10-23T06:07:21;1.93;;;1.47;;
4311;SDS011;2169;49.086;9.284;2022-10-23T06:09:49;5.57;;;2.03;;
4311;SDS011;2169;49.086;9.284;2022-10-23T06:12:18;1.60;;;1.50;;
4311;SDS011;2169;49.086;9.284;2022-10-23T06:14:45;2.60;;;1.57;;
4311;SDS011;2169;49.086;9.284;2022-10-23T06:17:11;10.00;;;2.30;;
4311;SDS011;2169;49.086;9.284;2022-10-23T06:19:38;13.70;;;3.77;;
4311;SDS011;2169;49.086;9.284;2022-10-23T06:22:05;4.00;;;2.50;;
4311;SDS011;2169;49.086;9.284;2022-10-23T06:24:32;4.77;;;1.80;;
4311;SDS011;2169;49.086;9.284;2022-10-23T06:26:58;4.53;;;2.23;;
4311;SDS011;2169;49.086;9.284;2022-10-23T06:29:26;5.20;;;1.40;;
4311;SDS011;2169;49.086;9.284;2022-10-23T06:31:53;5.40;;;1.53;;
4311;SDS011;2169;49.086;9.284;2022-10-23T06:34:20;7.00;;;1.60;;
4311;SDS011;2169;49.086;9.284;2022-10-23T06:36:46;2.80;;;2.10;;
4311;SDS011;2169;49.086;9.284;2022-10-23T06:39:13;3.27;;;2.37;;
4311;SDS011;2169;49.086;9.284;2022-10-23T06:41:40;15.23;;;9.60;;
4311;SDS011;2169;49.086;9.284;2022-10-23T06:44:08;15.20;;;8.87;;
4311;SDS011;2169;49.086;9.284;2022-10-23T06:46:36;5.13;;;3.40;;
4311;SDS011;2169;49.086;9.284;2022-10-23T06:49:03;5.30;;;3.07;;
4311;SDS011;2169;49.086;9.284;2022-10-23T06:51:30;8.03;;;4.90;;
4311;SDS011;2169;49.086;9.284;2022-10-23T06:53:56;7.80;;;2.90;;
4311;SDS011;2169;49.086;9.284;2022-10-23T06:56:23;8.00;;;3.13;;
4311;SDS011;2169;49.086;9.284;2022-10-23T06:58:53;8.67;;;4.97;;
4311;SDS011;2169;49.086;9.284;2022-10-23T07:01:20;5.93;;;5.00;;
4311;SDS011;2169;49.086;9.284;2022-10-23T07:03:49;6.30;;;4.30;;
4311;SDS011;2169;49.086;9.284;2022-10-23T07:06:15;5.93;;;4.53;;
4311;SDS011;2169;49.086;9.284;2022-10-23T07:08:42;7.80;;;4.83;;
4311;SDS011;2169;49.086;9.284;2022-10-23T07:11:10;18.60;;;4.00;;
4311;SDS011;2169;49.086;9.284;2022-10-23T07:13:37;8.50;;;6.23;;
4311;SDS011;2169;49.086;9.284;2022-10-23T07:16:09;7.20;;;5.40;;
4311;SDS011;2169;49.086;9.284;2022-10-23T07:18:37;6.43;;;5.13;;
4311;SDS011;2169;49.086;9.284;2022-10-23T07:21:05;9.10;;;5.30;;
4311;SDS011;2169;49.086;9.284;2022-10-23T07:23:32;6.70;;;5.13;;
4311;SDS011;2169;49.086;9.284;2022-10-23T07:26:02;13.23;;;5.27;;
4311;SDS011;2169;49.086;9.284;2022-10-23T07:28:30;10.93;;;5.87;;
4311;SDS011;2169;49.086;9.284;2022-10-23T07:30:57;8.57;;;4.80;;
4311;SDS011;2169;49.086;9.284;2022-10-23T07:33:24;5.30;;;4.23;;
4311;SDS011;2169;49.086;9.284;2022-10-23T07:35:51;6.73;;;2.97;;
4311;SDS011;2169;49.086;9.284;2022-10-23T07:38:19;3.50;;;2.77;;
4311;SDS011;2169;49.086;9.284;2022-10-23T07:40:46;4.20;;;3.10;;
4311;SDS011;2169;49.086;9.284;2022-10-23T07:43:13;11.13;;;3.73;;
4311;SDS011;2169;49.086;9.284;2022-10-23T07:45:41;3.53;;;3.33;;
4311;SDS011;2169;49.086;9.284;2022-10-23T07:48:08;6.97;;;3.53;;
4311;SDS011;2169;49.086;9.284;2022-10-23T07:50:36;3.67;;;3.37;;
4311;SDS011;2169;49.086;9.284;2022-10-23T07:53:02;3.73;;;3.40;;
4311;SDS011;2169;49.086;9.284;2022-10-23T07:55:31;6.83;;;3.90;;
4311;SDS011;2169;49.086;9.284;2022-10-23T07:57:57;21.17;;;4.27;;
4311;SDS011;2169;49.086;9.284;2022-10-23T08:00:24;8.47;;;2.80;;
4311;SDS011;2169;49.086;9.284;2022-10-23T08:02:51;3.33;;;2.60;;
4311;SDS011;2169;49.086;9.284;2022-10-23T08:05:17;6.13;;;4.97;;
4311;SDS011;2169;49.086;9.284;2022-10-23T08:07:45;13.30;;;5.60;;
4311;SDS011;2169;49.086;9.284;2022-10-23T08:10:12;5.20;;;4.70;;
4311;SDS011;2169;49.086;9.284;2022-10-23T08:12:40;10.50;;;4.73;;
4311;SDS011;2169;49.086;9.284;2022-10-23T08:15:07;6.23;;;3.33;;
4311;SDS011;2169;49.086;9.284;2022-10-23T08:17:34;12.30;;;3.27;;
4311;SDS011;2169;49.086;9.284;2022-10-23T08:20:01;15.93;;;2.77;;
4311;SDS011;2169;49.086;9.284;2022-10-23T08:22:27;2.43;;;2.30;;
4311;SDS011;2169;49.086;9.284;2022-10-23T08:24:54;3.37;;;2.03;;
4311;SDS011;2169;49.086;9.284;2022-10-23T08:27:21;1.90;;;1.80;;
4311;SDS011;2169;49.086;9.284;2022-10-23T08:29:49;1.90;;;1.67;;
4311;SDS011;2169;49.086;9.284;2022-10-23T08:32:16;11.83;;;1.87;;
4311;SDS011;2169;49.086;9.284;2022-10-23T08:34:42;5.13;;;1.90;;
4311;SDS011;2169;49.086;9.284;2022-10-23T08:37:09;2.67;;;1.47;;
4311;SDS011;2169;49.086;9.284;2022-10-23T08:39:36;5.80;;;1.87;;
4311;SDS011;2169;49.086;9.284;2022-10-23T08:42:03;1.37;;;1.27;;
4311;SDS011;2169;49.086;9.284;2022-10-23T08:44:31;3.23;;;1.10;;
4311;SDS011;2169;49.086;9.284;2022-10-23T08:47:02;2.97;;;1.37;;
4311;SDS011;2169;49.086;9.284;2022-10-23T08:49:34;1.90;;;1.67;;
4311;SDS011;2169;49.086;9.284;2022-10-23T08:52:15;8.03;;;1.63;;
4311;SDS011;2169;49.086;9.284;2022-10-23T08:54:52;2.87;;;1.63;;
4311;SDS011;2169;49.086;9.284;2022-10-23T08:57:27;1.50;;;1.40;;
4311;SDS011;2169;49.086;9.284;2022-10-23T08:59:59;1.60;;;1.20;;
4311;SDS011;2169;49.086;9.284;2022-10-23T09:02:33;0.83;;;0.83;;
4311;SDS011;2169;49.086;9.284;2022-10-23T09:05:05;2.50;;;2.40;;
4311;SDS011;2169;49.086;9.284;2022-10-23T09:07:38;1.87;;;1.30;;
4311;SDS011;2169;49.086;9.284;2022-10-23T09:10:16;1.77;;;1.47;;
4311;SDS011;2169;49.086;9.284;2022-10-23T09:12:50;1.97;;;1.83;;
4311;SDS011;2169;49.086;9.284;2022-10-23T09:15:21;3.90;;;1.00;;
4311;SDS011;2169;49.086;9.284;2022-10-23T09:17:55;2.40;;;2.20;;
4311;SDS011;2169;49.086;9.284;2022-10-23T09:20:26;1.30;;;1.20;;
4311;SDS011;2169;49.086;9.284;2022-10-23T09:22:59;1.37;;;0.90;;
4311;SDS011;2169;49.086;9.284;2022-10-23T09:25:29;0.80;;;0.80;;
4311;SDS011;2169;49.086;9.284;2022-10-23T09:28:00;4.40;;;1.13;;
4311;SDS011;2169;49.086;9.284;2022-10-23T09:30:27;5.60;;;1.50;;
4311;SDS011;2169;49.086;9.284;2022-10-23T09:32:57;1.43;;;0.80;;
4311;SDS011;2169;49.086;9.284;2022-10-23T09:35:25;1.47;;;0.73;;
4311;SDS011;2169;49.086;9.284;2022-10-23T09:37:53;3.10;;;1.10;;
4311;SDS011;2169;49.086;9.284;2022-10-23T09:40:23;1.27;;;1.00;;
4311;SDS011;2169;49.086;9.284;2022-10-23T09:42:55;5.40;;;0.83;;
4311;SDS011;2169;49.086;9.284;2022-10-23T09:45:24;1.20;;;1.10;;
4311;SDS011;2169;49.086;9.284;2022-10-23T09:48:09;0.63;;;0.63;;
4311;SDS011;2169;49.086;9.284;2022-10-23T09:50:41;0.80;;;0.73;;
4311;SDS011;2169;49.086;9.284;2022-10-23T09:53:14;1.17;;;1.00;;
4311;SDS011;2169;49.086;9.284;2022-10-23T09:55:49;0.90;;;0.90;;
4311;SDS011;2169;49.086;9.284;2022-10-23T09:58:18;0.80;;;0.80;;
4311;SDS011;2169;49.086;9.284;2022-10-23T10:00:46;1.03;;;0.70;;
4311;SDS011;2169;49.086;9.284;2022-10-23T10:03:18;3.47;;;0.70;;
4311;SDS011;2169;49.086;9.284;2022-10-23T10:05:52;0.67;;;0.67;;
4311;SDS011;2169;49.086;9.284;2022-10-23T10:08:21;1.00;;;0.80;;
4311;SDS011;2169;49.086;9.284;2022-10-23T10:10:54;0.70;;;0.70;;
4311;SDS011;2169;49.086;9.284;2022-10-23T10:13:30;1.83;;;0.50;;
4311;SDS011;2169;49.086;9.284;2022-10-23T10:16:06;0.60;;;0.60;;
4311;SDS011;2169;49.086;9.284;2022-10-23T10:18:41;1.07;;;0.60;;
4311;SDS011;2169;49.086;9.284;2022-10-23T10:21:13;0.70;;;0.70;;
4311;SDS011;2169;49.086;9.284;2022-10-23T10:23:46;2.10;;;0.70;;
4311;SDS011;2169;49.086;9.284;2022-10-23T10:26:27;0.63;;;0.63;;
4311;SDS011;2169;49.086;9.284;2022-10-23T10:29:09;0.60;;;0.60;;
4311;SDS011;2169;49.086;9.284;2022-10-23T10:31:45;0.53;;;0.53;;
4311;SDS011;2169;49.086;9.284;2022-10-23T10:34:24;2.30;;;0.70;;
4311;SDS011;2169;49.086;9.284;2022-10-23T10:37:00;3.37;;;0.50;;
4311;SDS011;2169;49.086;9.284;2022-10-23T10:39:34;0.80;;;0.57;;
4311;SDS011;2169;49.086;9.284;2022-10-23T10:42:21;1.07;;;0.90;;
4311;SDS011;2169;49.086;9.284;2022-10-23T10:44:58;0.60;;;0.60;;
4311;SDS011;2169;49.086;9.284;2022-10-23T10:47:36;0.60;;;0.60;;
4311;SDS011;2169;49.086;9.284;2022-10-23T10:50:13;1.27;;;0.60;;
4311;SDS011;2169;49.086;9.284;2022-10-23T10:52:46;0.77;;;0.70;;
4311;SDS011;2169;49.086;9.284;2022-10-23T10:55:22;0.73;;;0.60;;
4311;SDS011;2169;49.086;9.284;2022-10-23T10:57:56;0.50;;;0.50;;
4311;SDS011;2169;49.086;9.284;2022-10-23T11:00:26;1.80;;;0.80;;
4311;SDS011;2169;49.086;9.284;2022-10-23T11:02:59;0.50;;;0.50;;
4311;SDS011;2169;49.086;9.284;2022-10-23T11:05:31;0.50;;;0.50;;
4311;SDS011;2169;49.086;9.284;2022-10-23T11:08:03;0.57;;;0.57;;
4311;SDS011;2169;49.086;9.284;2022-10-23T11:10:32;0.50;;;0.50;;
4311;SDS011;2169;49.086;9.284;2022-10-23T11:13:01;1.27;;;0.70;;
4311;SDS011;2169;49.086;9.284;2022-10-23T11:15:36;0.70;;;0.70;;
4311;SDS011;2169;49.086;9.284;2022-10-23T11:18:10;13.60;;;0.60;;
4311;SDS011;2169;49.086;9.284;2022-10-23T11:20:46;1.73;;;0.80;;
4311;SDS011;2169;49.086;9.284;2022-10-23T11:26:31;0.57;;;0.50;;
4311;SDS011;2169;49.086;9.284;2022-10-23T11:29:17;0.60;;;0.60;;
4311;SDS011;2169;49.086;9.284;2022-10-23T11:32:04;1.87;;;0.60;;
4311;SDS011;2169;49.086;9.284;2022-10-23T11:34:52;5.10;;;0.50;;
4311;SDS011;2169;49.086;9.284;2022-10-23T11:37:42;0.93;;;0.60;;
4311;SDS011;2169;49.086;9.284;2022-10-23T11:40:22;0.60;;;0.60;;
4311;SDS011;2169;49.086;9.284;2022-10-23T11:42:50;4.93;;;0.57;;
4311;SDS011;2169;49.086;9.284;2022-10-23T11:48:19;5.03;;;0.60;;
4311;SDS011;2169;49.086;9.284;2022-10-23T11:50:51;1.97;;;0.50;;
4311;SDS011;2169;49.086;9.284;2022-10-23T11:53:36;0.60;;;0.60;;
4311;SDS011;2169;49.086;9.284;2022-10-23T12:05:45;0.53;;;0.50;;
4311;SDS011;2169;49.086;9.284;2022-10-23T12:08:34;7.80;;;0.70;;
4311;SDS011;2169;49.086;9.284;2022-10-23T12:14:37;0.50;;;0.50;;
4311;SDS011;2169;49.086;9.284;2022-10-23T12:17:17;4.10;;;0.73;;
4311;SDS011;2169;49.086;9.284;2022-10-23T12:20:00;14.13;;;0.90;;
4311;SDS011;2169;49.086;9.284;2022-10-23T12:22:37;0.80;;;0.80;;
4311;SDS011;2169;49.086;9.284;2022-10-23T12:25:10;0.70;;;0.67;;
4311;SDS011;2169;49.086;9.284;2022-10-23T12:27:40;1.40;;;0.97;;
4311;SDS011;2169;49.086;9.284;2022-10-23T12:30:13;0.73;;;0.73;;
4311;SDS011;2169;49.086;9.284;2022-10-23T12:35:51;3.23;;;0.60;;
4311;SDS011;2169;49.086;9.284;2022-10-23T12:38:30;0.50;;;0.50;;
4311;SDS011;2169;49.086;9.284;2022-10-23T12:41:02;3.40;;;0.50;;
4311;SDS011;2169;49.086;9.284;2022-10-23T12:43:36;3.47;;;0.70;;
4311;SDS011;2169;49.086;9.284;2022-10-23T12:46:06;0.50;;;0.50;;
4311;SDS011;2169;49.086;9.284;2022-10-23T12:48:54;0.70;;;0.70;;
4311;SDS011;2169;49.086;9.284;2022-10-23T12:51:59;1.20;;;0.67;;
4311;SDS011;2169;49.086;9.284;2022-10-23T12:55:21;0.80;;;0.80;;
4311;SDS011;2169;49.086;9.284;2022-10-23T12:57:50;0.73;;;0.73;;
4311;SDS011;2169;49.086;9.284;2022-10-23T13:00:20;1.77;;;1.67;;
4311;SDS011;2169;49.086;9.284;2022-10-23T13:02:58;1.53;;;0.70;;
4311;SDS011;2169;49.086;9.284;2022-10-23T13:05:27;0.90;;;0.70;;
4311;SDS011;2169;49.086;9.284;2022-10-23T13:07:55;1.10;;;0.73;;
4311;SDS011;2169;49.086;9.284;2022-10-23T13:10:23;4.03;;;3.70;;
4311;SDS011;2169;49.086;9.284;2022-10-23T13:12:53;1.00;;;0.50;;
4311;SDS011;2169;49.086;9.284;2022-10-23T13:15:23;0.87;;;0.63;;
4311;SDS011;2169;49.086;9.284;2022-10-23T13:18:00;0.60;;;0.60;;
4311;SDS011;2169;49.086;9.284;2022-10-23T13:20:29;1.80;;;0.50;;
4311;SDS011;2169;49.086;9.284;2022-10-23T13:23:00;0.60;;;0.60;;
4311;SDS011;2169;49.086;9.284;2022-10-23T13:25:34;0.57;;;0.57;;
4311;SDS011;2169;49.086;9.284;2022-10-23T13:28:09;0.77;;;0.73;;
4311;SDS011;2169;49.086;9.284;2022-10-23T13:30:56;1.00;;;0.60;;
4311;SDS011;2169;49.086;9.284;2022-10-23T13:33:32;4.90;;;0.60;;
4311;SDS011;2169;49.086;9.284;2022-10-23T13:36:02;0.50;;;0.50;;
4311;SDS011;2169;49.086;9.284;2022-10-23T13:38:32;0.50;;;0.50;;
4311;SDS011;2169;49.086;9.284;2022-10-23T13:41:00;1.43;;;0.77;;
4311;SDS011;2169;49.086;9.284;2022-10-23T13:43:31;0.60;;;0.60;;
4311;SDS011;2169;49.086;9.284;2022-10-23T13:45:59;1.13;;;0.77;;
4311;SDS011;2169;49.086;9.284;2022-10-23T13:48:31;1.17;;;0.87;;
4311;SDS011;2169;49.086;9.284;2022-10-23T13:51:00;2.00;;;0.60;;
4311;SDS011;2169;49.086;9.284;2022-10-23T13:53:36;11.43;;;0.80;;
4311;SDS011;2169;49.086;9.284;2022-10-23T13:56:03;0.63;;;0.60;;
4311;SDS011;2169;49.086;9.284;2022-10-23T13:58:32;0.70;;;0.60;;
4311;SDS011;2169;49.086;9.284;2022-10-23T14:00:59;0.60;;;0.60;;
4311;SDS011;2169;49.086;9.284;2022-10-23T14:03:25;1.00;;;0.87;;
4311;SDS011;2169;49.086;9.284;2022-10-23T14:05:52;0.90;;;0.70;;
4311;SDS011;2169;49.086;9.284;2022-10-23T14:08:19;0.60;;;0.60;;
4311;SDS011;2169;49.086;9.284;2022-10-23T14:10:47;0.60;;;0.60;;
4311;SDS011;2169;49.086;9.284;2022-10-23T14:13:14;0.60;;;0.60;;
4311;SDS011;2169;49.086;9.284;2022-10-23T14:15:43;0.70;;;0.70;;
4311;SDS011;2169;49.086;9.284;2022-10-23T14:18:09;1.40;;;0.90;;
4311;SDS011;2169;49.086;9.284;2022-10-23T14:20:36;2.83;;;0.60;;
4311;SDS011;2169;49.086;9.284;2022-10-23T14:23:04;2.60;;;0.80;;
4311;SDS011;2169;49.086;9.284;2022-10-23T14:25:30;1.63;;;1.13;;
4311;SDS011;2169;49.086;9.284;2022-10-23T14:27:57;5.00;;;1.30;;
4311;SDS011;2169;49.086;9.284;2022-10-23T14:30:24;1.37;;;0.97;;
4311;SDS011;2169;49.086;9.284;2022-10-23T14:32:52;1.43;;;0.83;;
4311;SDS011;2169;49.086;9.284;2022-10-23T14:35:19;4.10;;;1.07;;
4311;SDS011;2169;49.086;9.284;2022-10-23T14:37:46;5.90;;;0.97;;
4311;SDS011;2169;49.086;9.284;2022-10-23T14:40:12;3.43;;;0.60;;
4311;SDS011;2169;49.086;9.284;2022-10-23T14:42:45;0.93;;;0.60;;
4311;SDS011;2169;49.086;9.284;2022-10-23T15:02:44;1.03;;;0.70;;
4311;SDS011;2169;49.086;9.284;2022-10-23T15:12:00;2.50;;;2.30;;
4311;SDS011;2169;49.086;9.284;2022-10-23T15:14:27;7.70;;;1.43;;
4311;SDS011;2169;49.086;9.284;2022-10-23T15:16:54;2.23;;;0.70;;
4311;SDS011;2169;49.086;9.284;2022-10-23T15:19:21;0.90;;;0.80;;
4311;SDS011;2169;49.086;9.284;2022-10-23T15:21:47;8.40;;;0.90;;
4311;SDS011;2169;49.086;9.284;2022-10-23T15:24:15;0.80;;;0.80;;
4311;SDS011;2169;49.086;9.284;2022-10-23T15:26:44;12.27;;;0.70;;
4311;SDS011;2169;49.086;9.284;2022-10-23T15:29:13;0.90;;;0.60;;
4311;SDS011;2169;49.086;9.284;2022-10-23T15:31:40;3.33;;;0.57;;
4311;SDS011;2169;49.086;9.284;2022-10-23T15:34:10;3.03;;;0.70;;
4311;SDS011;2169;49.086;9.284;2022-10-23T15:36:38;1.23;;;0.60;;
4311;SDS011;2169;49.086;9.284;2022-10-23T15:39:07;0.70;;;0.70;;
4311;SDS011;2169;49.086;9.284;2022-10-23T15:41:35;7.47;;;0.80;;
4311;SDS011;2169;49.086;9.284;2022-10-23T15:44:04;1.53;;;0.97;;
4311;SDS011;2169;49.086;9.284;2022-10-23T15:46:33;0.70;;;0.60;;
4311;SDS011;2169;49.086;9.284;2022-10-23T15:49:01;2.87;;;0.70;;
4311;SDS011;2169;49.086;9.284;2022-10-23T15:51:28;1.37;;;0.80;;
4311;SDS011;2169;49.086;9.284;2022-10-23T15:53:55;3.60;;;1.20;;
4311;SDS011;2169;49.086;9.284;2022-10-23T15:56:22;2.80;;;1.63;;
4311;SDS011;2169;49.086;9.284;2022-10-23T15:58:49;1.50;;;1.03;;
4311;SDS011;2169;49.086;9.284;2022-10-23T16:01:16;14.13;;;0.90;;
4311;SDS011;2169;49.086;9.284;2022-10-23T16:03:44;5.63;;;0.90;;
4311;SDS011;2169;49.086;9.284;2022-10-23T16:06:11;3.23;;;0.80;;
4311;SDS011;2169;49.086;9.284;2022-10-23T16:08:39;1.23;;;1.13;;
4311;SDS011;2169;49.086;9.284;2022-10-23T16:11:11;10.53;;;0.83;;
4311;SDS011;2169;49.086;9.284;2022-10-23T16:13:40;5.40;;;1.10;;
4311;SDS011;2169;49.086;9.284;2022-10-23T16:16:08;3.13;;;1.10;;
4311;SDS011;2169;49.086;9.284;2022-10-23T16:18:35;7.30;;;1.43;;
4311;SDS011;2169;49.086;9.284;2022-10-23T16:21:03;11.23;;;1.17;;